Flight Track Log - Related Links

Times and Time Zones

All times are in EDT time to prevent confusion due to time zone crossing. See the N502QS flight status page for this flight to view local times or setup timezone preferences in your user account.

Time Position Orientation Groundspeed Altitude Reporting Facility
EDT Latitude Longitude Course Direction KTS MPH feet Rate Location/Type
Sat 02:45:28 PM 37.4000 -121.9667 15° North 159 183 3,700  Level Northern Cal TRACON
Sat 02:46:28 PM 37.4500 -121.9500 15° North 251 289 5,000 650 Climbing Northern Cal TRACON
Sat 02:47:28 PM 37.4167 -121.8667 117° Southeast 280 322 5,000 1,000 Level Northern Cal TRACON
Sat 02:48:28 PM 37.3500 -121.8000 142° Southeast 278 320 7,000 2,120 Climbing Northern Cal TRACON
Sat 02:49:41 PM 37.2881 -121.7311 138° Southeast 281 323 9,700 2,800 Climbing Oakland Center
Sat 02:50:43 PM 37.2219 -121.6589 139° Southeast 303 349 13,300 2,710 Climbing Oakland Center
Sat 02:51:45 PM 37.1447 -121.5747 139° Southeast 353 406 15,300 2,195 Climbing Oakland Center
Sat 02:52:46 PM 37.0556 -121.4750 138° Southeast 394 453 17,800 2,439 Climbing Oakland Center
Sat 02:53:48 PM 36.9686 -121.3781 138° Southeast 414 476 20,300 2,439 Climbing Oakland Center
Sat 02:54:49 PM 36.8756 -121.2789 140° Southeast 433 498 22,800 2,537 Climbing Oakland Center
Sat 02:55:51 PM 36.7819 -121.1792 140° Southeast 440 506 25,500 2,634 Climbing Oakland Center
Sat 02:56:52 PM 36.6847 -121.0781 140° Southeast 448 516 28,200 1,707 Climbing Oakland Center
Sat 02:57:54 PM 36.5628 -120.9461 139° Southeast 471 542 29,000 390 Climbing Oakland Center
Sat 02:58:55 PM 36.4581 -120.8344 139° Southeast 488 562 29,000  Level Oakland Center
Sat 02:59:57 PM 36.3539 -120.7231 139° Southeast 493 567 29,000  Level Oakland Center
Sat 03:00:58 PM 36.2492 -120.6111 139° Southeast 496 571 29,000  Level Oakland Center
Sat 03:01:59 PM 36.1456 -120.5006 139° Southeast 494 568 29,000  Level Oakland Center
Sat 03:03:01 PM 36.0403 -120.3872 139° Southeast 499 574 29,000  Level Oakland Center
Sat 03:04:02 PM 35.9347 -120.2772 140° Southeast 497 572 29,000  Level Oakland Center
Sat 03:05:04 PM 35.8283 -120.1669 140° Southeast 496 571 29,000  Level Oakland Center
Sat 03:06:05 PM 35.7233 -120.0569 140° Southeast 494 568 29,000  Level Oakland Center
Sat 03:07:06 PM 35.6167 -119.9508 141° Southeast 491 565 29,000  Level Oakland Center
Sat 03:08:08 PM 35.5033 -119.8536 145° Southeast 492 566 29,000  Level Oakland Center
Sat 03:09:09 PM 35.3683 -119.7383 145° Southeast 489 563 29,000  Level Oakland Center
Sat 03:10:10 PM 35.2581 -119.6428 145° Southeast 485 558 29,000  Level Oakland Center
Sat 03:11:12 PM 35.1475 -119.5494 145° Southeast 483 556 29,000 -829 Level Oakland Center
Sat 03:12:13 PM 35.0431 -119.4606 145° Southeast 460 529 27,300 -1,707 Descending Oakland Center
Sat 03:13:15 PM 34.9444 -119.3769 145° Southeast 435 501 25,500 -1,707 Descending Oakland Center
Sat 03:14:16 PM 34.8497 -119.2956 145° Southeast 422 486 23,800 -1,672 Descending Oakland Center
Sat 03:15:17 PM 34.7550 -119.2153 145° Southeast 416 479 22,100 -1,610 Descending Oakland Center
Sat 03:16:19 PM 34.6639 -119.1381 145° Southeast 407 468 20,500 -1,685 Descending Oakland Center
Sat 03:17:43 PM 34.5286 -119.0272 146° Southeast 384 442 18,000 -1,655 Descending Los Angeles Center
Sat 03:18:44 PM 34.4425 -118.9544 145° Southeast 377 434 16,500 -1,463 Descending Los Angeles Center
Sat 03:19:46 PM 34.3583 -118.8844 146° Southeast 366 421 15,000 -1,355 Descending Los Angeles Center
Sat 03:20:48 PM 34.2703 -118.8511 163° South 322 371 13,700 -1,306 Descending Los Angeles Center
Sat 03:21:50 PM 34.1933 -118.8217 162° South 293 337 12,300 -1,403 Descending Los Angeles Center
Sat 03:22:52 PM 34.1167 -118.7933 163° South 288 331 10,800 -1,015 Descending Los Angeles Center
Sat 03:24:06 PM 34.0383 -118.7328 147° Southeast 306 352 10,000 -706 Descending Los Angeles Center
Sat 03:25:08 PM 34.0256 -118.6228 98° East 265 305 9,200 -1,161 Descending Los Angeles Center
Sat 03:26:10 PM 34.0172 -118.5297 96° East 260 299 7,600 -1,113 Descending Los Angeles Center
Sat 03:27:12 PM 34.0108 -118.4497 95° East 254 292 6,900 -1,113 Descending Los Angeles Center
Sat 03:28:14 PM 34.0197 -118.3667 83° East 252 290 5,300 -1,403 Descending Los Angeles Center
Sat 03:29:16 PM 34.0278 -118.2914 83° East 240 276 4,000 -634 Descending Los Angeles Center
Sat 03:30:17 PM 34.0342 -118.2253 83° East 217 250 4,000  Level Los Angeles Center
Sat 03:31:19 PM 34.0222 -118.1656 104° East 209 241 4,000 -339 Level Los Angeles Center
Sat 03:32:21 PM 33.9744 -118.2089 217° Southwest 199 229 3,300 -823 Descending Los Angeles Center
Sat 03:33:23 PM 33.9678 -118.2644 262° West 176 203 2,300 -823 Descending Los Angeles Center
Sat 03:34:25 PM 33.9603 -118.3197 261° West 172 198 1,600 -780 Descending Los Angeles Center
Sat 03:35:26 PM 33.9561 -118.3736 265° West 167 192 700 -732 Descending Los Angeles Center
Sat 03:36:28 PM 33.9517 -118.4114 262° West 134 154 100 -581 Descending Los Angeles Center
Sat 03:38:00 PM 33.9425 -118.4081 228° Southwest  Level Estimated
Sat 03:45:00 PM 33.9425 -118.4081 228° Southwest  Level Estimated

Login

Don't have an account? Register now (free) for customized features, flight alerts, and more!